Time;durP1;ratioP1;P1;durP2;ratioP2;P2;SDS_P1;SDS_P2;PMS_P1;PMS_P2;Temp;Humidity;BMP_temperature;BMP_pressure;BME280_temperature;BME280_humidity;BME280_pressure;Samples;Min_cycle;Max_cycle;Signal;HPM_P1;HPM_P2
2021/12/08 00:00:53;;;;;;;10.45;5.28;;;5.50;47.70;;;;;;5017221;28;20166;-48
2021/12/08 00:03:23;;;;;;;6.00;2.97;;;5.50;47.50;;;;;;5034383;28;20189;-49
2021/12/08 00:05:52;;;;;;;8.73;4.38;;;5.50;47.40;;;;;;5034258;28;20182;-48
2021/12/08 00:08:22;;;;;;;6.70;4.22;;;5.50;47.30;;;;;;5001018;28;20172;-49
2021/12/08 00:13:26;;;;;;;16.55;4.55;;;5.50;47.60;;;;;;5037097;28;20201;-48
2021/12/08 00:15:57;;;;;;;5.38;3.40;;;5.40;47.30;;;;;;5037965;28;20170;-47
2021/12/08 00:18:27;;;;;;;9.88;3.95;;;5.30;48.20;;;;;;5037652;28;20542;-48
2021/12/08 00:20:59;;;;;;;11.88;5.88;;;5.30;48.00;;;;;;5020502;28;20170;-48
2021/12/08 00:23:28;;;;;;;7.72;4.50;;;5.30;47.80;;;;;;5020798;28;20500;-49
2021/12/08 00:25:56;;;;;;;12.98;5.20;;;5.40;47.90;;;;;;5020356;28;20174;-48
2021/12/08 00:28:24;;;;;;;18.60;4.38;;;5.30;47.80;;;;;;5037717;28;20193;-47
2021/12/08 00:30:59;;;;;;;12.18;4.07;;;5.30;47.80;;;;;;5037318;28;20197;-49
2021/12/08 00:33:28;;;;;;;12.00;6.95;;;5.30;48.00;;;;;;5037505;28;20236;-48
2021/12/08 00:35:58;;;;;;;9.18;4.80;;;5.20;48.40;;;;;;5019955;28;20202;-48
2021/12/08 00:38:26;;;;;;;10.57;3.97;;;5.20;48.20;;;;;;5037408;28;20507;-48
2021/12/08 00:40:54;;;;;;;22.58;5.65;;;5.10;48.50;;;;;;5037496;28;20607;-48
2021/12/08 00:43:23;;;;;;;10.25;6.72;;;5.10;48.80;;;;;;5054515;28;20225;-48
2021/12/08 00:45:51;;;;;;;20.13;5.25;;;5.10;48.80;;;;;;5057176;28;20180;-48
2021/12/08 00:48:19;;;;;;;12.40;4.68;;;5.10;48.60;;;;;;5057074;28;20247;-48
2021/12/08 00:50:47;;;;;;;12.50;5.97;;;5.20;48.30;;;;;;5057014;28;20705;-48
2021/12/08 00:53:14;;;;;;;8.20;6.68;;;5.10;48.60;;;;;;5057003;28;20658;-48
2021/12/08 00:55:42;;;;;;;4.50;4.07;;;5.20;48.50;;;;;;5056941;28;20170;-48
2021/12/08 00:58:09;;;;;;;11.23;6.15;;;5.20;48.60;;;;;;5056242;28;20161;-48
2021/12/08 01:00:42;;;;;;;5.95;5.07;;;5.10;48.90;;;;;;5056291;28;20170;-47
2021/12/08 01:03:11;;;;;;;10.93;4.25;;;5.10;48.80;;;;;;5056908;28;20157;-47
2021/12/08 01:05:43;;;;;;;13.13;4.70;;;5.20;48.50;;;;;;5056961;28;20166;-48
2021/12/08 01:08:11;;;;;;;11.45;5.50;;;5.30;48.40;;;;;;5056789;28;20153;-48
2021/12/08 01:10:42;;;;;;;4.47;3.53;;;5.40;48.10;;;;;;5039550;28;20189;-48
2021/12/08 01:13:12;;;;;;;8.05;5.13;;;5.40;48.00;;;;;;5056694;28;20188;-48
2021/12/08 01:15:42;;;;;;;9.80;4.18;;;5.40;48.00;;;;;;5056107;28;20533;-48
2021/12/08 01:18:10;;;;;;;7.47;2.65;;;5.60;47.70;;;;;;5039640;28;20169;-48
2021/12/08 01:20:38;;;;;;;8.20;4.07;;;5.60;47.50;;;;;;5055829;28;20314;-48
2021/12/08 01:23:05;;;;;;;7.07;3.55;;;5.60;47.40;;;;;;5055533;28;20161;-48
2021/12/08 01:25:33;;;;;;;8.63;4.00;;;5.60;47.30;;;;;;5056375;28;20173;-48
2021/12/08 01:28:01;;;;;;;14.90;4.22;;;5.60;47.40;;;;;;5055744;28;20161;-48
2021/12/08 01:30:29;;;;;;;10.25;4.20;;;5.70;47.40;;;;;;5055541;28;20224;-49
2021/12/08 01:32:57;;;;;;;7.53;4.38;;;5.70;47.30;;;;;;5056310;28;20189;-48
2021/12/08 01:35:26;;;;;;;9.25;5.20;;;5.70;47.30;;;;;;5055662;28;20591;-48
2021/12/08 01:37:54;;;;;;;10.00;2.92;;;5.70;47.20;;;;;;5055549;28;20172;-48
2021/12/08 01:40:22;;;;;;;5.38;3.40;;;5.60;47.40;;;;;;5055626;28;20231;-48
2021/12/08 01:42:53;;;;;;;17.30;4.65;;;5.60;47.40;;;;;;5041456;28;20232;-48
2021/12/08 01:48:11;;;;;;;3.25;2.90;;;5.70;47.30;;;;;;5021845;28;20180;-48
2021/12/08 01:50:40;;;;;;;5.63;2.70;;;5.70;47.10;;;;;;5036187;28;20205;-47
2021/12/08 01:53:09;;;;;;;8.13;5.65;;;5.60;47.30;;;;;;5018792;28;20173;-48
2021/12/08 01:55:38;;;;;;;7.18;2.83;;;5.60;47.20;;;;;;5019008;28;20162;-48
2021/12/08 01:58:07;;;;;;;6.88;4.70;;;5.60;47.30;;;;;;5018730;28;20173;-48
2021/12/08 02:00:46;;;;;;;9.38;3.80;;;5.70;47.30;;;;;;5019065;28;20217;-48
2021/12/08 02:03:15;;;;;;;20.42;6.45;;;5.80;47.20;;;;;;5018933;28;20303;-48
2021/12/08 02:05:42;;;;;;;14.32;4.93;;;5.80;47.20;;;;;;5035786;28;20256;-48
2021/12/08 02:08:10;;;;;;;6.55;3.00;;;5.80;47.20;;;;;;5035638;28;20163;-48
2021/12/08 02:10:38;;;;;;;5.63;4.82;;;5.80;47.00;;;;;;5001876;28;20201;-48
2021/12/08 02:13:07;;;;;;;12.77;3.90;;;5.90;47.10;;;;;;5035764;28;20192;-48
2021/12/08 02:15:37;;;;;;;11.50;4.45;;;5.90;47.10;;;;;;5018243;28;20188;-48
2021/12/08 02:18:07;;;;;;;5.07;2.30;;;5.90;47.00;;;;;;5035403;28;20162;-48
2021/12/08 02:20:35;;;;;;;4.40;1.98;;;5.90;47.00;;;;;;5018348;28;20244;-48
2021/12/08 02:23:03;;;;;;;5.65;4.50;;;5.90;46.80;;;;;;5035428;28;20196;-48
2021/12/08 02:25:32;;;;;;;4.20;3.55;;;5.90;46.80;;;;;;5001854;28;20178;-48
2021/12/08 02:28:01;;;;;;;6.55;3.63;;;5.80;46.70;;;;;;5035472;28;20257;-48
2021/12/08 02:30:44;;;;;;;6.40;4.38;;;5.80;46.90;;;;;;5035447;28;20200;-48
2021/12/08 02:47:31;;;;;;;7.20;3.58;;;5.60;47.10;;;;;;5021052;28;20660;-48
2021/12/08 02:49:59;;;;;;;4.72;1.92;;;5.60;47.00;;;;;;5021465;28;20570;-47
2021/12/08 02:52:27;;;;;;;5.72;3.38;;;5.50;47.20;;;;;;5001741;28;20165;-48
2021/12/08 02:54:55;;;;;;;8.20;3.80;;;5.60;47.00;;;;;;5034928;28;20654;-48
2021/12/08 02:57:27;;;;;;;5.53;4.00;;;5.50;47.30;;;;;;5001561;28;20173;-48
2021/12/08 02:59:54;;;;;;;5.82;3.90;;;5.50;47.30;;;;;;5035078;28;20163;-48
2021/12/08 03:02:23;;;;;;;5.93;2.85;;;5.60;47.20;;;;;;5034729;28;20166;-50
2021/12/08 03:04:50;;;;;;;7.85;3.50;;;5.50;47.60;;;;;;5034795;28;20166;-48
2021/12/08 03:07:18;;;;;;;5.68;2.70;;;5.60;47.30;;;;;;5034937;28;20182;-48
2021/12/08 03:09:45;;;;;;;4.15;2.30;;;5.60;47.30;;;;;;5034650;28;20212;-49
2021/12/08 03:12:13;;;;;;;6.03;3.35;;;5.70;47.40;;;;;;5017576;28;20216;-48
2021/12/08 03:14:41;;;;;;;3.92;2.33;;;5.70;47.30;;;;;;5034879;28;20166;-48
2021/12/08 03:17:10;;;;;;;9.98;2.72;;;5.70;47.00;;;;;;5034794;28;20608;-48
2021/12/08 03:19:38;;;;;;;6.18;2.92;;;5.80;46.90;;;;;;5001144;28;20583;-48
2021/12/08 03:22:10;;;;;;;5.18;2.67;;;5.80;46.80;;;;;;5034826;28;20158;-48
2021/12/08 03:24:41;;;;;;;6.28;2.78;;;5.80;46.70;;;;;;5018138;28;20178;-49
2021/12/08 03:27:13;;;;;;;6.82;3.40;;;5.60;47.00;;;;;;5034805;28;20150;-48
2021/12/08 03:29:57;;;;;;;10.13;2.40;;;5.60;47.30;;;;;;5018062;28;20247;-49
2021/12/08 03:32:36;;;;;;;5.80;3.03;;;5.60;47.30;;;;;;5017175;28;20502;-48
2021/12/08 03:35:07;;;;;;;4.85;3.67;;;5.60;47.30;;;;;;5034304;28;20249;-48
2021/12/08 03:37:38;;;;;;;6.43;4.10;;;5.70;47.20;;;;;;5034501;28;20623;-49
2021/12/08 03:40:10;;;;;;;5.22;3.53;;;5.70;47.20;;;;;;5034689;28;20175;-48
2021/12/08 03:42:39;;;;;;;2.80;1.73;;;5.80;46.90;;;;;;5038932;28;20231;-48
2021/12/08 03:45:20;;;;;;;4.65;1.75;;;5.80;46.90;;;;;;5053802;28;20169;-48
2021/12/08 03:47:49;;;;;;;7.68;2.75;;;5.80;47.00;;;;;;5056348;28;20514;-49
2021/12/08 03:50:19;;;;;;;9.70;4.75;;;5.70;47.10;;;;;;5057379;28;20209;-48
2021/12/08 03:52:46;;;;;;;7.65;2.35;;;5.80;46.90;;;;;;5041115;28;20157;-48
2021/12/08 03:55:16;;;;;;;2.13;1.67;;;5.80;46.90;;;;;;5058345;28;20165;-48
2021/12/08 03:57:44;;;;;;;5.25;2.60;;;5.80;46.70;;;;;;5057336;28;20165;-48
2021/12/08 04:00:15;;;;;;;8.07;4.10;;;5.80;46.60;;;;;;5057391;28;20249;-49
2021/12/08 04:02:43;;;;;;;5.13;3.97;;;5.80;46.60;;;;;;5057492;28;20169;-48
2021/12/08 04:05:12;;;;;;;2.75;1.98;;;5.80;46.50;;;;;;5040608;28;20187;-48
2021/12/08 04:07:44;;;;;;;4.00;1.85;;;5.80;46.60;;;;;;5057142;28;20162;-48
2021/12/08 04:10:20;;;;;;;13.38;4.00;;;5.80;46.50;;;;;;5041575;28;20300;-48
2021/12/08 04:12:53;;;;;;;12.80;4.35;;;5.80;46.50;;;;;;5056840;28;20165;-48
2021/12/08 04:15:25;;;;;;;8.68;3.42;;;5.80;46.50;;;;;;5056919;28;20219;-49
2021/12/08 04:17:55;;;;;;;6.13;3.35;;;5.80;46.50;;;;;;5040928;28;20165;-48
2021/12/08 04:20:31;;;;;;;11.60;6.50;;;5.80;46.50;;;;;;5057672;28;20173;-48
2021/12/08 04:23:00;;;;;;;4.50;4.05;;;5.70;46.50;;;;;;5056757;28;20586;-48
2021/12/08 04:25:33;;;;;;;7.40;4.68;;;5.70;46.70;;;;;;5056676;28;20265;-49
2021/12/08 04:28:05;;;;;;;14.13;5.18;;;5.70;46.60;;;;;;5057805;28;20192;-49
2021/12/08 04:30:44;;;;;;;9.20;2.58;;;5.80;46.50;;;;;;5057701;28;20569;-47
2021/12/08 04:33:12;;;;;;;4.22;2.65;;;5.80;46.30;;;;;;5056913;28;20160;-48
2021/12/08 04:35:41;;;;;;;6.35;1.98;;;5.80;46.20;;;;;;5056684;28;20166;-48
2021/12/08 04:38:12;;;;;;;2.97;1.10;;;5.80;46.20;;;;;;5057342;28;20590;-49
2021/12/08 05:02:23;;;;;;;7.97;3.58;;;5.60;46.80;;;;;;5056683;28;20188;-48
2021/12/08 05:07:57;;;;;;;3.33;2.63;;;5.70;46.50;;;;;;5056428;28;20192;-49
2021/12/08 05:10:30;;;;;;;3.50;2.25;;;5.70;46.20;;;;;;5041947;28;20197;-48
2021/12/08 05:13:01;;;;;;;4.70;3.28;;;5.70;46.40;;;;;;5056105;28;20590;-48
2021/12/08 05:15:34;;;;;;;4.93;4.53;;;5.70;46.50;;;;;;5056912;28;20287;-48
2021/12/08 05:18:14;;;;;;;4.45;2.38;;;5.60;46.50;;;;;;5056097;28;20180;-48
2021/12/08 05:21:12;;;;;;;3.40;2.10;;;5.70;46.40;;;;;;5040328;28;20157;-48
2021/12/08 05:23:51;;;;;;;7.82;3.13;;;5.80;46.00;;;;;;5056687;28;20161;-48
2021/12/08 05:26:29;;;;;;;9.98;2.28;;;5.80;46.00;;;;;;5055636;28;20164;-48
2021/12/08 05:29:00;;;;;;;6.65;3.85;;;5.70;46.20;;;;;;5056567;28;20196;-47
2021/12/08 05:31:30;;;;;;;2.38;1.30;;;5.60;46.30;;;;;;5055437;28;20211;-48
2021/12/08 05:33:59;;;;;;;7.35;4.53;;;5.60;46.20;;;;;;5055592;28;20169;-48
2021/12/08 05:36:27;;;;;;;6.65;2.92;;;5.60;46.40;;;;;;5055429;28;20244;-49
2021/12/08 05:38:56;;;;;;;3.92;2.55;;;5.70;46.20;;;;;;5055288;28;20649;-49
2021/12/08 05:41:33;;;;;;;5.00;4.60;;;5.70;46.00;;;;;;5053995;28;20174;-48
2021/12/08 05:44:01;;;;;;;5.30;4.05;;;5.70;45.90;;;;;;5019067;28;20591;-48
2021/12/08 05:46:33;;;;;;;4.35;2.03;;;5.80;45.70;;;;;;5036072;28;20178;-48
2021/12/08 05:49:02;;;;;;;3.70;2.45;;;5.80;45.60;;;;;;5018847;28;20241;-48
2021/12/08 05:51:34;;;;;;;4.63;2.25;;;5.80;45.70;;;;;;5035867;28;20193;-48
2021/12/08 05:54:11;;;;;;;2.95;2.50;;;5.80;45.80;;;;;;5019289;28;20154;-48
2021/12/08 05:56:41;;;;;;;4.18;2.40;;;5.80;45.70;;;;;;5002606;28;20174;-48
2021/12/08 05:59:10;;;;;;;7.80;2.47;;;5.80;45.60;;;;;;5018468;28;20159;-48
2021/12/08 06:02:04;;;;;;;4.72;2.20;;;5.70;45.70;;;;;;5018273;28;20178;-48
2021/12/08 06:04:32;;;;;;;3.97;3.03;;;5.70;45.70;;;;;;5035848;28;20161;-48
2021/12/08 06:07:02;;;;;;;2.47;2.28;;;5.70;45.90;;;;;;5035576;28;20257;-48
2021/12/08 06:09:30;;;;;;;2.35;1.75;;;5.60;45.90;;;;;;5035564;28;20175;-48
2021/12/08 06:11:59;;;;;;;4.53;3.33;;;5.60;45.90;;;;;;5035507;28;20170;-48
2021/12/08 06:14:33;;;;;;;5.13;3.10;;;5.70;45.70;;;;;;5035607;28;20162;-48
2021/12/08 06:17:06;;;;;;;4.10;1.98;;;5.60;45.70;;;;;;5035376;28;20480;-48
2021/12/08 06:19:35;;;;;;;6.13;2.72;;;5.60;45.80;;;;;;5018581;28;20209;-47
2021/12/08 06:22:05;;;;;;;3.78;3.13;;;5.60;45.80;;;;;;5018151;28;20232;-48
2021/12/08 06:24:33;;;;;;;9.07;5.43;;;5.70;45.60;;;;;;5018196;28;20177;-48
2021/12/08 06:27:01;;;;;;;3.95;2.20;;;5.60;45.50;;;;;;5002067;28;20304;-48
2021/12/08 06:29:29;;;;;;;5.82;2.95;;;5.60;45.50;;;;;;5017945;28;20166;-48
2021/12/08 06:32:01;;;;;;;11.75;3.38;;;5.60;45.30;;;;;;5018124;28;20170;-48
2021/12/08 06:34:31;;;;;;;9.23;3.15;;;5.60;45.20;;;;;;5018510;28;20241;-48
2021/12/08 06:37:12;;;;;;;5.00;2.88;;;5.60;45.30;;;;;;5017878;28;20154;-48
2021/12/08 06:39:55;;;;;;;2.60;2.03;;;5.50;45.20;;;;;;5019062;28;20229;-49
2021/12/08 06:42:28;;;;;;;6.15;2.63;;;5.40;45.40;;;;;;5034788;28;20213;-48
2021/12/08 06:44:56;;;;;;;4.47;2.38;;;5.40;45.40;;;;;;5054337;28;20550;-49
2021/12/08 06:47:27;;;;;;;8.82;4.90;;;5.40;45.40;;;;;;5055011;28;20245;-48
2021/12/08 06:49:58;;;;;;;6.20;1.58;;;5.40;45.20;;;;;;5037431;28;20241;-48
2021/12/08 06:52:29;;;;;;;5.82;2.85;;;5.30;45.50;;;;;;5054849;28;20157;-48
2021/12/08 06:55:14;;;;;;;5.13;3.45;;;5.20;45.50;;;;;;5054415;28;20177;-49
2021/12/08 06:57:56;;;;;;;4.20;2.75;;;5.30;46.30;;;;;;5054196;28;20161;-48
2021/12/08 07:01:38;;;;;;;2.25;1.42;;;5.30;45.40;;;;;;5039168;28;20644;-49
2021/12/08 07:04:09;;;;;;;3.15;2.33;;;5.40;45.20;;;;;;5030506;28;20581;-49
2021/12/08 07:07:14;;;;;;;7.90;3.05;;;5.30;45.20;;;;;;5054592;28;20549;-48
2021/12/08 07:09:40;;;;;;;2.35;2.15;;;5.40;45.00;;;;;;5051821;28;20177;-50
2021/12/08 07:12:21;;;;;;;6.15;2.67;;;5.40;44.80;;;;;;5054954;28;20215;-48
2021/12/08 07:15:01;;;;;;;3.22;2.30;;;5.30;44.80;;;;;;5053770;28;20161;-48
2021/12/08 07:17:35;;;;;;;5.28;4.07;;;6.00;45.30;;;;;;5053738;28;20153;-48
2021/12/08 07:20:16;;;;;;;5.07;3.63;;;5.30;45.00;;;;;;5053695;28;20232;-48
2021/12/08 07:22:52;;;;;;;4.70;3.67;;;5.30;45.00;;;;;;5041212;28;20181;-48
2021/12/08 07:25:24;;;;;;;6.93;2.55;;;5.30;44.70;;;;;;5058602;28;20156;-50
2021/12/08 07:27:52;;;;;;;3.00;2.67;;;5.30;44.90;;;;;;5058628;28;20158;-48
2021/12/08 07:30:37;;;;;;;2.97;2.28;;;5.30;44.70;;;;;;5074250;28;20279;-48
2021/12/08 07:33:05;;;;;;;5.32;3.45;;;5.30;44.70;;;;;;5041828;28;20162;-48
2021/12/08 07:35:43;;;;;;;16.85;5.30;;;5.40;44.70;;;;;;5057582;28;20239;-48
2021/12/08 07:38:14;;;;;;;2.70;2.17;;;5.50;44.50;;;;;;5057618;28;20164;-48
2021/12/08 07:40:53;;;;;;;6.40;4.13;;;5.60;44.10;;;;;;5057621;28;20486;-49
2021/12/08 07:43:23;;;;;;;5.20;2.50;;;5.50;44.10;;;;;;5040338;28;20248;-49
2021/12/08 07:46:02;;;;;;;4.72;2.67;;;5.60;43.90;;;;;;5038345;28;20162;-48
2021/12/08 07:48:42;;;;;;;4.60;2.92;;;5.80;43.60;;;;;;5007347;28;20169;-49
2021/12/08 07:51:18;;;;;;;4.43;2.53;;;5.90;43.90;;;;;;5020927;28;20283;-48
2021/12/08 07:53:46;;;;;;;5.30;4.65;;;6.00;43.20;;;;;;5038227;28;20231;-48
2021/12/08 07:56:19;;;;;;;8.88;4.03;;;5.90;42.80;;;;;;5004865;28;20170;-48
2021/12/08 07:58:52;;;;;;;8.68;2.08;;;6.20;43.10;;;;;;5038140;28;20162;-48
2021/12/08 08:01:26;;;;;;;4.40;2.15;;;6.30;42.30;;;;;;5038242;28;20491;-49
2021/12/08 08:03:54;;;;;;;6.97;3.50;;;6.20;42.10;;;;;;5038287;28;20166;-49
2021/12/08 08:06:31;;;;;;;2.83;2.60;;;6.20;42.30;;;;;;5004572;28;20174;-49
2021/12/08 08:08:58;;;;;;;5.90;3.13;;;6.20;41.90;;;;;;5037835;28;20157;-48
2021/12/08 08:11:35;;;;;;;3.08;2.00;;;6.20;42.50;;;;;;5020885;28;20236;-49
2021/12/08 08:14:03;;;;;;;12.15;4.15;;;6.20;42.10;;;;;;5021729;28;20169;-49
2021/12/08 08:16:35;;;;;;;7.10;4.32;;;6.10;42.00;;;;;;5037712;28;20168;-48
2021/12/08 08:19:11;;;;;;;5.97;3.10;;;6.10;42.00;;;;;;5020666;28;20161;-48
2021/12/08 08:21:44;;;;;;;6.82;3.55;;;6.20;42.30;;;;;;5021023;28;20731;-48
2021/12/08 08:24:12;;;;;;;2.17;1.95;;;6.20;42.00;;;;;;5004621;28;20184;-49
2021/12/08 08:26:42;;;;;;;2.05;1.73;;;6.30;41.90;;;;;;5004520;28;20174;-48
2021/12/08 08:29:12;;;;;;;5.25;3.45;;;6.30;41.60;;;;;;5020620;28;20162;-50
2021/12/08 08:31:46;;;;;;;5.47;3.47;;;6.30;41.80;;;;;;5020519;28;20194;-49
2021/12/08 08:34:14;;;;;;;7.03;3.40;;;6.40;41.90;;;;;;5037169;28;20158;-49
2021/12/08 08:36:45;;;;;;;7.28;5.78;;;6.50;41.40;;;;;;5020253;28;20170;-49
2021/12/08 08:39:23;;;;;;;3.90;3.53;;;6.50;41.10;;;;;;5037472;28;20158;-48
2021/12/08 08:41:53;;;;;;;2.45;1.83;;;6.60;41.00;;;;;;5037534;28;20597;-49
2021/12/08 08:44:27;;;;;;;8.60;3.45;;;6.70;41.00;;;;;;5037665;28;20176;-48
2021/12/08 08:46:57;;;;;;;7.43;4.82;;;6.90;40.50;;;;;;5020351;28;20177;-48
2021/12/08 08:49:32;;;;;;;5.30;3.10;;;7.00;40.20;;;;;;5020902;28;20202;-48
2021/12/08 08:52:21;;;;;;;3.47;1.35;;;7.10;39.30;;;;;;5019913;28;20524;-49
2021/12/08 08:54:53;;;;;;;3.83;3.10;;;7.10;39.80;;;;;;5005603;28;20583;-48
2021/12/08 08:57:28;;;;;;;3.50;1.17;;;7.20;40.20;;;;;;5037315;28;20162;-48
2021/12/08 09:00:10;;;;;;;5.78;2.70;;;7.30;39.40;;;;;;5004318;28;20181;-49
2021/12/08 09:02:39;;;;;;;1.60;1.23;;;7.40;39.10;;;;;;5037078;28;20208;-48
2021/12/08 09:05:16;;;;;;;3.85;2.10;;;7.40;39.40;;;;;;5020505;28;20201;-48
2021/12/08 09:07:51;;;;;;;7.07;2.30;;;7.30;39.00;;;;;;5004074;28;20176;-48
2021/12/08 09:10:38;;;;;;;6.00;2.95;;;7.30;39.30;;;;;;5004032;28;20255;-48
2021/12/08 09:13:17;;;;;;;6.15;3.90;;;7.40;39.60;;;;;;5005299;28;20174;-48
2021/12/08 09:15:53;;;;;;;6.85;3.25;;;7.50;39.00;;;;;;5004183;28;20243;-49
2021/12/08 09:18:30;;;;;;;6.22;2.50;;;7.60;38.70;;;;;;5019608;28;20142;-49
2021/12/08 09:21:15;;;;;;;7.53;4.70;;;7.70;38.90;;;;;;5018895;28;20182;-49
2021/12/08 09:23:49;;;;;;;3.72;1.75;;;7.90;38.60;;;;;;5018955;28;20174;-48
2021/12/08 09:26:21;;;;;;;5.38;4.32;;;7.90;38.70;;;;;;5019247;28;20543;-49
2021/12/08 09:29:00;;;;;;;1.75;1.58;;;7.90;38.60;;;;;;5003378;28;20178;-49
2021/12/08 09:31:40;;;;;;;2.58;2.03;;;8.00;38.40;;;;;;5036278;28;20222;-49
2021/12/08 09:34:19;;;;;;;1.95;1.75;;;7.90;38.10;;;;;;5036856;28;20256;-48
2021/12/08 09:36:58;;;;;;;4.35;1.60;;;7.80;38.30;;;;;;5036423;28;20196;-49
2021/12/08 09:39:33;;;;;;;4.45;2.50;;;7.80;38.20;;;;;;5019959;28;20172;-48
2021/12/08 09:42:08;;;;;;;2.20;1.63;;;7.70;38.20;;;;;;5029043;28;20295;-48
2021/12/08 09:44:42;;;;;;;12.20;4.30;;;7.70;38.70;;;;;;5038989;28;20181;-49
2021/12/08 09:47:10;;;;;;;4.80;2.60;;;7.80;38.90;;;;;;5055173;28;20161;-49
2021/12/08 09:49:39;;;;;;;5.47;2.58;;;8.10;38.10;;;;;;5054981;28;20181;-48
2021/12/08 09:52:10;;;;;;;5.80;3.83;;;8.30;38.00;;;;;;5056125;28;20161;-49
2021/12/08 09:54:39;;;;;;;6.75;2.70;;;8.30;37.70;;;;;;5054906;28;20667;-49
2021/12/08 09:57:11;;;;;;;4.35;2.80;;;8.50;37.60;;;;;;5054963;28;20172;-50
2021/12/08 09:59:47;;;;;;;4.43;1.83;;;8.70;37.50;;;;;;5055961;28;20264;-49
2021/12/08 10:02:29;;;;;;;4.07;2.97;;;9.00;36.80;;;;;;5054989;28;20157;-49
2021/12/08 10:04:58;;;;;;;4.00;3.65;;;9.00;36.20;;;;;;5054841;28;20240;-49
2021/12/08 10:07:27;;;;;;;4.70;3.30;;;8.60;36.10;;;;;;5054840;28;20606;-49
2021/12/08 10:09:55;;;;;;;3.92;3.42;;;8.50;37.20;;;;;;5055734;28;20565;-49
2021/12/08 10:12:23;;;;;;;3.28;2.97;;;8.30;37.30;;;;;;5055763;28;20173;-49
2021/12/08 10:14:51;;;;;;;7.13;3.63;;;8.30;37.80;;;;;;5054801;28;20608;-49
2021/12/08 10:17:20;;;;;;;4.88;2.55;;;8.70;36.80;;;;;;5038062;28;20238;-48
2021/12/08 10:20:12;;;;;;;6.78;2.58;;;9.20;36.20;;;;;;5054734;28;20167;-48
2021/12/08 10:22:42;;;;;;;7.78;3.42;;;9.20;35.60;;;;;;5055367;28;20169;-50
2021/12/08 10:25:17;;;;;;;7.60;4.90;;;9.00;35.70;;;;;;5054682;28;20239;-49
2021/12/08 10:28:21;;;;;;;7.30;3.65;;;9.00;36.30;;;;;;5055411;28;20242;-49
2021/12/08 10:30:55;;;;;;;5.80;4.10;;;8.80;35.80;;;;;;5055332;28;20487;-48
2021/12/08 10:34:36;;;;;;;8.70;4.47;;;8.60;36.20;;;;;;5055387;28;20545;-50
2021/12/08 10:36:53;;;;;;;4.22;2.15;;;8.30;36.90;;;;;;5046299;28;20165;-49
2021/12/08 10:39:34;;;;;;;5.63;3.92;;;8.10;37.00;;;;;;5054161;28;20563;-49
2021/12/08 10:42:29;;;;;;;2.83;1.90;;;7.90;37.00;;;;;;5054193;28;20362;-49
2021/12/08 10:45:14;;;;;;;4.82;2.45;;;7.90;37.60;;;;;;5055312;28;20189;-50
2021/12/08 10:47:55;;;;;;;3.95;2.60;;;7.90;38.10;;;;;;5054033;28;20177;-48
2021/12/08 10:56:05;;;;;;;4.32;2.35;;;7.80;37.90;;;;;;5053727;28;20165;-48
2021/12/08 10:58:35;;;;;;;8.60;5.55;;;7.80;37.20;;;;;;5053646;28;20153;-49
2021/12/08 11:01:13;;;;;;;4.07;2.58;;;7.80;38.10;;;;;;5053975;28;20170;-48
2021/12/08 11:03:40;;;;;;;7.68;3.22;;;7.70;37.70;;;;;;5054881;28;20151;-49
2021/12/08 11:06:09;;;;;;;6.35;3.47;;;7.70;38.50;;;;;;5054786;28;20174;-49
2021/12/08 11:08:40;;;;;;;8.93;5.22;;;7.70;38.10;;;;;;5054878;28;20188;-49
2021/12/08 11:11:11;;;;;;;4.10;2.33;;;7.70;37.70;;;;;;5053992;28;20191;-49
2021/12/08 11:13:45;;;;;;;6.18;3.85;;;7.60;37.80;;;;;;5053604;28;20162;-48
2021/12/08 11:16:20;;;;;;;7.80;4.88;;;7.50;38.20;;;;;;5054625;28;20149;-50
2021/12/08 11:18:50;;;;;;;5.05;3.38;;;7.40;37.70;;;;;;5054804;28;20164;-48
2021/12/08 11:21:25;;;;;;;2.55;1.75;;;7.40;38.20;;;;;;5037488;28;20167;-49
2021/12/08 11:23:57;;;;;;;8.48;3.03;;;7.40;38.00;;;;;;5054570;28;20168;-48
2021/12/08 11:26:33;;;;;;;7.68;4.63;;;7.30;38.10;;;;;;5054541;28;20154;-49
2021/12/08 11:29:09;;;;;;;3.63;3.17;;;7.30;38.10;;;;;;5053551;28;20158;-48
2021/12/08 11:31:38;;;;;;;5.18;3.00;;;7.20;38.30;;;;;;5054325;28;20622;-49
2021/12/08 11:34:23;;;;;;;6.95;2.80;;;7.20;38.30;;;;;;5054441;28;20595;-50
2021/12/08 11:37:02;;;;;;;5.78;2.38;;;7.30;38.30;;;;;;5053791;28;20542;-50
2021/12/08 11:39:33;;;;;;;4.47;3.65;;;7.30;38.10;;;;;;5037666;28;20150;-49
2021/12/08 11:42:06;;;;;;;3.28;2.53;;;7.30;38.00;;;;;;5047455;28;20214;-50
2021/12/08 11:44:37;;;;;;;10.27;4.85;;;7.30;38.00;;;;;;5017009;28;20170;-49
2021/12/08 11:47:11;;;;;;;4.30;2.45;;;7.20;38.00;;;;;;5017617;28;20162;-49
2021/12/08 11:49:48;;;;;;;11.90;3.25;;;7.10;38.00;;;;;;5017403;28;20159;-48
2021/12/08 11:52:20;;;;;;;3.03;2.35;;;7.00;38.00;;;;;;5034595;28;20233;-48
2021/12/08 11:54:54;;;;;;;3.97;2.58;;;6.90;38.30;;;;;;5017787;28;20189;-49
2021/12/08 11:57:22;;;;;;;5.85;2.28;;;6.80;38.00;;;;;;5016849;28;20494;-50
2021/12/08 12:00:01;;;;;;;4.13;3.08;;;6.80;38.40;;;;;;5017095;28;20201;-50
2021/12/08 12:02:39;;;;;;;6.40;4.05;;;6.70;38.50;;;;;;5002290;28;20155;-49
2021/12/08 12:05:18;;;;;;;7.78;2.55;;;6.80;38.30;;;;;;5017802;28;20184;-49
2021/12/08 12:07:47;;;;;;;5.50;2.33;;;6.70;38.30;;;;;;5034721;28;20168;-48
2021/12/08 12:10:18;;;;;;;11.65;5.72;;;6.60;38.40;;;;;;5037799;28;20181;-48
2021/12/08 12:12:46;;;;;;;6.43;4.05;;;6.70;38.50;;;;;;5038003;28;20158;-49
2021/12/08 12:15:18;;;;;;;6.93;6.07;;;6.70;38.50;;;;;;5020554;28;20182;-49
2021/12/08 12:17:50;;;;;;;4.88;3.28;;;6.70;38.30;;;;;;5020454;28;20164;-50
2021/12/08 12:20:29;;;;;;;3.78;3.28;;;6.70;38.40;;;;;;5021468;28;20169;-48
2021/12/08 12:23:33;;;;;;;8.05;3.95;;;6.60;38.50;;;;;;5004825;28;20165;-48
2021/12/08 12:26:38;;;;;;;4.60;2.78;;;6.40;38.30;;;;;;5037540;28;20164;-49
2021/12/08 12:29:44;;;;;;;3.83;2.60;;;6.40;38.60;;;;;;5020109;28;20253;-48
2021/12/08 12:32:34;;;;;;;3.72;3.35;;;6.30;38.80;;;;;;5020363;28;20511;-48
2021/12/08 12:35:14;;;;;;;7.78;2.75;;;6.30;38.60;;;;;;5037497;28;20154;-48
2021/12/08 12:37:42;;;;;;;5.13;3.42;;;6.30;38.80;;;;;;5037577;28;20146;-49
2021/12/08 12:40:17;;;;;;;4.50;2.58;;;6.30;38.60;;;;;;5037282;28;20619;-49
2021/12/08 12:42:59;;;;;;;3.90;3.50;;;6.20;38.60;;;;;;5041696;28;20303;-48
2021/12/08 12:45:34;;;;;;;5.82;3.65;;;6.30;38.70;;;;;;5056387;28;20161;-49
2021/12/08 12:48:26;;;;;;;7.20;3.28;;;6.30;38.40;;;;;;5056547;28;20153;-48
2021/12/08 12:50:55;;;;;;;4.38;3.50;;;6.20;38.20;;;;;;5056621;28;20197;-48
2021/12/08 12:53:34;;;;;;;12.13;3.95;;;6.10;38.40;;;;;;5057291;28;20153;-49
2021/12/08 12:56:03;;;;;;;4.35;3.50;;;6.10;38.60;;;;;;5057006;28;20184;-48
2021/12/08 12:58:43;;;;;;;4.93;2.08;;;6.10;38.70;;;;;;5057042;28;20158;-49
2021/12/08 13:01:14;;;;;;;4.10;2.88;;;6.00;38.60;;;;;;5056977;28;20474;-49
2021/12/08 13:03:53;;;;;;;3.20;2.90;;;5.90;38.80;;;;;;5056884;28;20168;-48
2021/12/08 13:06:46;;;;;;;2.42;2.22;;;5.90;38.70;;;;;;5056250;28;20162;-49
2021/12/08 13:09:37;;;;;;;3.80;2.67;;;5.90;38.80;;;;;;5040194;28;20170;-48
2021/12/08 13:12:24;;;;;;;5.57;3.45;;;5.80;38.50;;;;;;5056638;28;20248;-49
2021/12/08 13:15:14;;;;;;;9.35;3.42;;;5.80;38.80;;;;;;5056646;28;20150;-48
2021/12/08 13:18:12;;;;;;;4.53;1.98;;;5.80;39.10;;;;;;5056265;28;20510;-49
2021/12/08 13:20:55;;;;;;;2.05;1.85;;;5.90;39.20;;;;;;5038390;28;20184;-49
2021/12/08 13:23:27;;;;;;;8.02;4.00;;;5.90;39.10;;;;;;5039800;28;20173;-49
2021/12/08 13:26:05;;;;;;;3.92;3.53;;;5.80;39.10;;;;;;5039589;28;20503;-49
2021/12/08 13:31:26;;;;;;;10.93;3.03;;;5.90;39.40;;;;;;5055455;28;20286;-49
2021/12/08 13:33:57;;;;;;;7.43;3.92;;;5.80;39.10;;;;;;5055354;28;20154;-48
2021/12/08 13:36:31;;;;;;;5.93;3.83;;;5.80;39.30;;;;;;5055407;28;20242;-49
2021/12/08 13:38:59;;;;;;;7.88;3.00;;;5.80;39.00;;;;;;5055232;28;20165;-48
2021/12/08 13:41:30;;;;;;;2.28;2.08;;;5.90;39.20;;;;;;5054312;28;20599;-49
2021/12/08 13:44:02;;;;;;;3.72;3.42;;;5.90;39.20;;;;;;5018909;28;20280;-49
2021/12/08 13:46:40;;;;;;;6.35;2.67;;;5.90;39.30;;;;;;5018630;28;20177;-48
2021/12/08 13:49:26;;;;;;;6.05;3.90;;;5.90;39.30;;;;;;5018926;28;20170;-49
2021/12/08 13:52:19;;;;;;;12.63;3.90;;;6.00;39.10;;;;;;5035800;28;20201;-48
2021/12/08 13:54:52;;;;;;;6.72;4.10;;;5.90;39.00;;;;;;5036020;28;20162;-48
2021/12/08 13:57:48;;;;;;;12.40;3.60;;;6.00;39.20;;;;;;5019416;28;20153;-49
2021/12/08 14:00:18;;;;;;;8.23;4.53;;;6.00;39.10;;;;;;5004700;28;20237;-48
2021/12/08 14:02:49;;;;;;;4.80;3.42;;;5.90;38.90;;;;;;5035760;28;20265;-49
2021/12/08 14:05:45;;;;;;;3.10;2.88;;;5.80;39.00;;;;;;5035975;28;20181;-50
2021/12/08 14:08:26;;;;;;;3.65;2.72;;;5.80;39.10;;;;;;5035769;28;20198;-49
2021/12/08 14:11:15;;;;;;;5.20;3.35;;;5.80;39.30;;;;;;5018345;28;20273;-49
2021/12/08 14:13:48;;;;;;;7.10;2.30;;;5.80;39.50;;;;;;5035628;28;20535;-49
2021/12/08 14:16:23;;;;;;;7.50;2.65;;;5.70;39.30;;;;;;5019038;28;20232;-49
2021/12/08 14:18:52;;;;;;;9.88;2.28;;;5.70;39.40;;;;;;5035700;28;20192;-49
2021/12/08 14:21:33;;;;;;;7.22;4.47;;;5.60;39.70;;;;;;5018388;28;20213;-49
2021/12/08 14:24:06;;;;;;;8.75;3.40;;;5.60;39.60;;;;;;5035473;28;20611;-48